createdAt,value
2018-10-19T00:01:46.764Z,21.93
2018-10-19T00:04:12.956Z,21.94
2018-10-19T00:06:39.027Z,21.91
2018-10-19T00:09:05.152Z,21.79
2018-10-19T00:11:31.250Z,21.83
2018-10-19T00:13:57.301Z,21.80
2018-10-19T00:16:23.385Z,21.87
2018-10-19T00:18:50.089Z,21.89
2018-10-19T00:21:17.048Z,21.92
2018-10-19T00:23:43.146Z,22.00
2018-10-19T00:26:09.240Z,22.09
2018-10-19T00:28:35.228Z,22.16
2018-10-19T00:31:02.223Z,22.26
2018-10-19T00:33:28.327Z,22.31
2018-10-19T00:35:54.344Z,22.38
2018-10-19T00:38:20.448Z,22.33
2018-10-19T00:40:48.459Z,22.33
2018-10-19T00:43:14.647Z,22.29
2018-10-19T00:45:40.655Z,22.19
2018-10-19T00:48:06.707Z,22.00
2018-10-19T00:50:32.751Z,22.07
2018-10-19T00:52:58.790Z,22.01
2018-10-19T00:55:24.787Z,22.00
2018-10-19T00:57:50.823Z,21.97
2018-10-19T01:00:17.898Z,21.88
2018-10-19T01:02:43.983Z,21.91
2018-10-19T01:05:10.044Z,21.93
2018-10-19T01:07:36.215Z,21.95
2018-10-19T01:10:02.277Z,22.04
2018-10-19T01:12:28.632Z,22.04
2018-10-19T01:14:54.660Z,22.08
2018-10-19T01:17:20.638Z,22.17
2018-10-19T01:19:46.621Z,21.31
2018-10-19T01:22:12.626Z,21.97
2018-10-19T01:24:38.590Z,21.95
2018-10-19T01:27:04.593Z,22.00
2018-10-19T01:29:30.528Z,21.98
2018-10-19T01:31:56.508Z,21.96
2018-10-19T01:34:22.462Z,21.84
2018-10-19T01:36:48.433Z,21.79
2018-10-19T01:39:14.420Z,21.87
2018-10-19T01:41:40.375Z,21.86
2018-10-19T01:44:06.357Z,21.80
2018-10-19T01:46:33.264Z,21.80
2018-10-19T01:49:00.342Z,21.82
2018-10-19T01:51:26.384Z,21.94
2018-10-19T01:53:52.440Z,22.03
2018-10-19T01:56:19.135Z,22.03
2018-10-19T01:58:45.255Z,21.99
2018-10-19T02:01:11.308Z,22.02
2018-10-19T02:03:37.338Z,22.09
2018-10-19T02:06:03.404Z,22.07
2018-10-19T02:08:31.398Z,22.10
2018-10-19T02:13:37.993Z,21.93
2018-10-19T02:16:04.695Z,21.98
2018-10-19T02:18:30.703Z,22.04
2018-10-19T02:20:56.748Z,22.12
2018-10-19T02:23:22.852Z,22.16
2018-10-19T02:25:49.004Z,22.28
2018-10-19T02:28:15.317Z,22.36
2018-10-19T02:30:42.572Z,22.33
2018-10-19T02:33:08.756Z,22.30
2018-10-19T02:35:35.427Z,22.32
2018-10-19T02:40:35.774Z,22.25
2018-10-19T02:43:03.828Z,22.22
2018-10-19T02:45:29.931Z,22.15
2018-10-19T02:47:56.047Z,22.16
2018-10-19T02:50:22.653Z,22.13
2018-10-19T02:52:48.750Z,22.10
2018-10-19T02:55:15.637Z,22.01
2018-10-19T02:57:41.681Z,22.05
2018-10-19T03:00:08.575Z,22.14
2018-10-19T03:02:34.612Z,22.11
2018-10-19T03:05:00.745Z,22.14
2018-10-19T03:07:26.791Z,22.04
2018-10-19T03:09:52.887Z,21.98
2018-10-19T03:12:18.874Z,21.98
2018-10-19T03:14:44.885Z,22.03
2018-10-19T03:17:10.847Z,22.00
2018-10-19T03:19:36.847Z,22.01
2018-10-19T03:22:02.805Z,21.95
2018-10-19T03:24:28.761Z,22.03
2018-10-19T03:26:54.773Z,22.13
2018-10-19T03:29:20.939Z,22.11
2018-10-19T03:31:49.114Z,22.12
2018-10-19T03:34:15.199Z,22.15
2018-10-19T03:36:41.909Z,22.33
2018-10-19T03:39:10.279Z,22.33
2018-10-19T03:44:18.301Z,22.16
2018-10-19T03:46:48.018Z,22.00
2018-10-19T03:54:48.881Z,21.73
2018-10-19T03:57:14.995Z,21.72
2018-10-19T03:59:43.729Z,21.85
2018-10-19T04:02:11.979Z,21.84
2018-10-19T04:04:39.158Z,22.01
2018-10-19T04:07:05.263Z,21.99
2018-10-19T04:09:31.413Z,21.91
2018-10-19T04:12:00.471Z,21.86
2018-10-19T04:14:26.802Z,21.90
2018-10-19T04:16:56.724Z,21.92
2018-10-19T04:19:26.885Z,21.80
2018-10-19T04:21:57.038Z,21.75
2018-10-19T04:24:24.347Z,21.55
2018-10-19T04:26:50.723Z,21.67
2018-10-19T04:29:16.918Z,21.92
2018-10-19T04:31:44.000Z,21.96
2018-10-19T04:37:14.709Z,21.75
2018-10-19T04:45:20.972Z,21.48
2018-10-19T04:47:48.174Z,21.50
2018-10-19T05:04:01.438Z,21.87
2018-10-19T05:06:31.619Z,21.71
2018-10-19T05:11:33.524Z,21.60
2018-10-19T05:16:50.345Z,21.46
2018-10-19T05:19:18.342Z,21.29
2018-10-19T05:21:44.704Z,21.30
2018-10-19T05:26:46.802Z,21.48
2018-10-19T05:29:14.411Z,21.43
2018-10-19T05:31:42.313Z,21.44
2018-10-19T05:34:09.877Z,21.44
2018-10-19T05:36:39.059Z,21.39
2018-10-19T05:39:07.548Z,21.47
2018-10-19T05:41:40.063Z,21.43
2018-10-19T05:44:10.745Z,21.27
2018-10-19T05:46:43.158Z,21.17
2018-10-19T05:49:14.043Z,21.24
2018-10-19T05:51:44.861Z,21.31
2018-10-19T05:54:12.935Z,21.24
2018-10-19T05:56:40.361Z,21.29
2018-10-19T05:59:10.760Z,21.15
2018-10-19T06:04:16.373Z,21.39
2018-10-19T06:06:47.181Z,21.50
2018-10-19T06:09:15.199Z,21.45
2018-10-19T06:14:14.576Z,21.36
2018-10-19T06:16:44.469Z,21.37
2018-10-19T06:21:45.779Z,21.26
2018-10-19T06:24:16.363Z,21.34
2018-10-19T06:29:37.871Z,21.33
2018-10-19T06:32:06.589Z,21.39
2018-10-19T06:37:07.354Z,21.51
2018-10-19T06:42:15.635Z,21.48
2018-10-19T06:44:46.425Z,21.60
2018-10-19T06:47:14.087Z,21.59
2018-10-19T06:49:42.013Z,21.55
2018-10-19T06:52:12.398Z,21.57
2018-10-19T06:54:38.689Z,21.21
2018-10-19T06:57:09.866Z,21.31
2018-10-19T06:59:37.508Z,21.20
2018-10-19T07:02:05.201Z,21.18
2018-10-19T07:04:33.378Z,21.02
2018-10-19T07:07:03.104Z,21.18
2018-10-19T07:09:29.519Z,21.26
2018-10-19T07:12:09.666Z,21.32
2018-10-19T07:14:42.999Z,21.22
2018-10-19T07:17:13.576Z,21.11
2018-10-19T07:19:46.346Z,20.80
2018-10-19T07:25:12.907Z,20.91
2018-10-19T07:42:47.772Z,20.99
2018-10-19T07:47:49.684Z,21.02
2018-10-19T07:52:53.059Z,21.26
2018-10-19T07:58:02.872Z,21.02
2018-10-19T08:06:22.673Z,21.14
2018-10-19T08:11:40.954Z,21.17
2018-10-19T08:14:17.675Z,21.33
2018-10-19T08:17:00.353Z,21.20
2018-10-19T08:25:14.399Z,20.87
2018-10-19T08:27:44.142Z,20.70
2018-10-19T08:30:12.372Z,21.01
2018-10-19T08:32:42.195Z,21.15
2018-10-19T08:35:12.572Z,21.25
2018-10-19T08:51:40.919Z,21.01
2018-10-19T08:54:07.049Z,21.13
2018-10-19T08:56:34.528Z,21.18
2018-10-19T08:59:05.150Z,21.18
2018-10-19T09:01:34.585Z,21.00
2018-10-19T09:04:01.543Z,21.07
2018-10-19T09:09:00.668Z,20.96
2018-10-19T09:11:28.913Z,20.65
2018-10-19T09:13:56.367Z,20.70
2018-10-19T09:18:56.618Z,20.94
2018-10-19T10:24:36.236Z,21.32
2018-10-19T10:27:09.607Z,21.55
2018-10-19T10:29:37.452Z,21.41
2018-10-19T10:32:09.214Z,21.35
2018-10-19T10:34:35.401Z,21.41
2018-10-19T10:37:02.558Z,21.45
2018-10-19T10:39:28.830Z,21.38
2018-10-19T10:42:12.098Z,21.36
2018-10-19T10:44:38.279Z,21.32
2018-10-19T10:47:04.453Z,21.50
2018-10-19T10:49:30.624Z,21.63
2018-10-19T10:52:06.804Z,21.70
2018-10-19T10:54:34.940Z,21.46
2018-10-19T10:57:01.023Z,21.63
2018-10-19T10:59:27.214Z,21.58
2018-10-19T11:01:54.900Z,21.55
2018-10-19T11:04:21.463Z,21.49
2018-10-19T11:06:47.716Z,21.60
2018-10-19T11:09:13.935Z,21.72
2018-10-19T11:11:41.008Z,21.72
2018-10-19T11:14:07.160Z,21.75
2018-10-19T11:16:33.368Z,21.94
2018-10-19T11:18:59.540Z,21.92
2018-10-19T11:21:26.456Z,21.84
2018-10-19T11:23:53.657Z,21.72
2018-10-19T11:26:19.830Z,21.51
2018-10-19T11:28:46.056Z,21.60
2018-10-19T11:36:16.772Z,21.45
2018-10-19T11:38:42.930Z,21.45
2018-10-19T11:41:09.205Z,21.51
2018-10-19T11:43:36.454Z,21.62
2018-10-19T11:46:02.645Z,21.57
2018-10-19T11:48:29.165Z,21.59
2018-10-19T11:50:55.490Z,21.66
2018-10-19T11:53:25.375Z,21.62
2018-10-19T11:55:55.849Z,21.59
2018-10-19T11:58:23.047Z,21.63
2018-10-19T12:00:50.233Z,21.72
2018-10-19T12:03:16.347Z,21.84
2018-10-19T12:05:42.682Z,21.98
2018-10-19T12:08:08.801Z,21.91
2018-10-19T12:10:34.905Z,21.96
2018-10-19T12:13:01.008Z,22.09
2018-10-19T12:20:38.236Z,22.11
2018-10-19T12:23:04.371Z,22.08
2018-10-19T12:35:40.136Z,21.91
2018-10-19T12:38:06.235Z,21.94
2018-10-19T12:40:32.373Z,22.10
2018-10-19T12:42:58.529Z,22.14
2018-10-19T12:45:24.705Z,22.27
2018-10-19T12:47:50.904Z,22.27
2018-10-19T12:57:52.679Z,21.98
2018-10-19T13:00:18.770Z,22.03
2018-10-19T13:02:44.821Z,22.19
2018-10-19T13:05:10.916Z,22.26
2018-10-19T13:07:37.114Z,22.21
2018-10-19T13:15:06.795Z,21.97
2018-10-19T13:17:32.871Z,22.11
2018-10-19T13:19:58.931Z,22.23
2018-10-19T13:22:24.996Z,22.17
2018-10-19T13:24:51.708Z,22.13
2018-10-19T13:27:17.927Z,22.02
2018-10-19T13:29:44.579Z,22.17
2018-10-19T13:32:10.753Z,22.08
2018-10-19T13:34:36.947Z,22.12
2018-10-19T13:37:03.067Z,22.19
2018-10-19T13:39:29.183Z,22.13
2018-10-19T13:41:55.382Z,22.19
2018-10-19T13:44:21.524Z,22.33
2018-10-19T13:46:48.687Z,22.26
2018-10-19T13:49:16.719Z,22.21
2018-10-19T13:51:42.815Z,22.17
2018-10-19T13:54:09.011Z,22.16
2018-10-19T13:56:35.107Z,22.04
2018-10-19T13:59:01.233Z,22.15
2018-10-19T14:01:29.064Z,22.14
2018-10-19T14:03:55.574Z,21.97
2018-10-19T14:06:21.700Z,22.03
2018-10-19T14:08:47.859Z,22.04
2018-10-19T14:11:18.585Z,22.04
2018-10-19T14:34:00.983Z,22.03
2018-10-19T14:36:27.134Z,22.08
2018-10-19T14:38:54.217Z,22.08
2018-10-19T14:41:20.346Z,22.21
2018-10-19T14:43:46.458Z,22.25
2018-10-19T14:46:12.573Z,22.20
2018-10-19T14:48:38.627Z,22.14
2018-10-19T14:51:04.720Z,22.23
2018-10-19T14:53:31.021Z,22.29
2018-10-19T14:55:57.140Z,22.15
2018-10-19T14:58:23.301Z,22.11
2018-10-19T15:00:50.420Z,22.14
2018-10-19T15:03:16.673Z,22.02
2018-10-19T15:05:43.585Z,22.05
2018-10-19T15:08:09.694Z,22.14
2018-10-19T15:10:36.077Z,22.18
2018-10-19T15:13:02.003Z,22.23
2018-10-19T15:15:28.300Z,22.24
2018-10-19T15:17:55.185Z,22.19
2018-10-19T15:20:21.269Z,22.17
2018-10-19T15:22:47.429Z,22.21
2018-10-19T15:25:13.606Z,22.06
2018-10-19T15:27:39.903Z,22.03
2018-10-19T15:30:06.138Z,21.99
2018-10-19T15:32:32.339Z,21.98
2018-10-19T15:35:04.844Z,21.91
2018-10-19T15:37:31.283Z,21.93
2018-10-19T15:39:57.426Z,21.98
2018-10-19T15:42:23.556Z,21.95
2018-10-19T15:44:49.703Z,22.08
2018-10-19T15:47:15.858Z,22.15
2018-10-19T15:49:44.966Z,22.12
2018-10-19T15:52:11.101Z,22.12
2018-10-19T15:54:37.148Z,22.04
2018-10-19T15:57:03.351Z,21.99
2018-10-19T15:59:29.380Z,21.85
2018-10-19T16:01:55.499Z,21.94
2018-10-19T16:04:21.533Z,21.95
2018-10-19T16:06:47.619Z,21.92
2018-10-19T16:09:13.822Z,21.96
2018-10-19T16:11:41.029Z,21.76
2018-10-19T16:14:07.150Z,21.67
2018-10-19T16:16:33.221Z,21.63
2018-10-19T16:18:59.377Z,21.58
2018-10-19T16:21:25.503Z,21.58
2018-10-19T16:23:51.607Z,21.71
2018-10-19T16:26:17.728Z,21.66
2018-10-19T16:28:43.802Z,21.64
2018-10-19T16:31:09.990Z,21.69
2018-10-19T16:38:43.007Z,21.87
2018-10-19T16:41:11.188Z,21.82
2018-10-19T16:46:09.693Z,21.80
2018-10-19T16:48:35.867Z,21.76
2018-10-19T17:03:43.428Z,21.66
2018-10-19T17:06:10.598Z,21.56
2018-10-19T17:08:36.612Z,21.40
2018-10-19T17:13:38.630Z,21.57
2018-10-19T17:16:04.739Z,21.52
2018-10-19T17:18:30.844Z,21.53
2018-10-19T17:20:56.949Z,21.53
2018-10-19T17:23:22.949Z,21.44
2018-10-19T17:25:49.053Z,21.40
2018-10-19T17:28:15.140Z,21.43
2018-10-19T17:30:41.274Z,21.46
2018-10-19T17:33:07.261Z,21.53
2018-10-19T17:35:33.667Z,21.49
2018-10-19T17:37:59.764Z,21.44
2018-10-19T17:40:26.446Z,21.43
2018-10-19T17:42:52.562Z,21.42
2018-10-19T17:45:18.547Z,21.26
2018-10-19T17:47:44.686Z,21.27
2018-10-19T17:50:11.499Z,21.27
2018-10-19T17:52:37.685Z,21.24
2018-10-19T17:57:36.184Z,21.31
2018-10-19T18:00:02.321Z,21.25
2018-10-19T18:02:28.358Z,21.34
2018-10-19T18:04:54.437Z,21.39
2018-10-19T18:07:20.560Z,21.38
2018-10-19T18:09:46.680Z,21.36
2018-10-19T18:14:45.338Z,21.31
2018-10-19T18:22:18.245Z,20.95
2018-10-19T18:24:44.054Z,21.01
2018-10-19T18:27:10.258Z,21.00
2018-10-19T18:32:11.204Z,21.02
2018-10-19T18:34:37.285Z,21.13
2018-10-19T18:37:03.444Z,21.28
2018-10-19T18:39:29.570Z,21.16
2018-10-19T18:41:55.676Z,21.07
2018-10-19T18:44:22.726Z,21.13
2018-10-19T18:46:48.905Z,21.04
2018-10-19T18:49:15.049Z,21.09
2018-10-19T18:51:41.437Z,21.07
2018-10-19T18:54:09.581Z,21.06
2018-10-19T18:56:35.702Z,21.11
2018-10-19T18:59:01.892Z,21.06
2018-10-19T19:01:28.354Z,21.06
2018-10-19T19:09:00.767Z,20.79
2018-10-19T19:11:26.980Z,20.69
2018-10-19T19:13:53.212Z,20.76
2018-10-19T19:16:19.348Z,20.86
2018-10-19T19:18:46.794Z,20.86
2018-10-19T19:21:12.898Z,20.93
2018-10-19T19:23:40.246Z,21.00
2018-10-19T19:26:07.300Z,21.10
2018-10-19T19:28:33.472Z,21.07
2018-10-19T19:33:35.025Z,20.94
2018-10-19T19:38:32.533Z,20.79
2018-10-19T19:40:58.712Z,20.86
2018-10-19T19:46:03.228Z,21.01
2018-10-19T19:48:30.205Z,20.87
2018-10-19T19:50:56.389Z,21.04
2018-10-19T19:53:22.532Z,21.04
2018-10-19T19:58:24.616Z,20.81
2018-10-19T20:00:50.729Z,20.83
2018-10-19T20:03:16.881Z,20.82
2018-10-19T20:05:48.641Z,20.81
2018-10-19T20:13:25.114Z,20.82
2018-10-19T20:15:51.305Z,20.78
2018-10-19T20:21:02.963Z,20.84
2018-10-19T20:23:29.133Z,20.84
2018-10-19T20:25:55.268Z,20.77
2018-10-19T20:28:27.547Z,20.93
2018-10-19T20:30:53.671Z,20.87
2018-10-19T20:33:19.872Z,20.84
2018-10-19T20:35:47.480Z,20.83
2018-10-19T20:38:13.709Z,20.75
2018-10-19T20:40:39.752Z,20.79
2018-10-19T20:43:05.885Z,20.80
2018-10-19T20:45:31.998Z,20.77
2018-10-19T20:47:58.130Z,20.78
2018-10-19T20:50:24.321Z,20.75
2018-10-19T20:52:50.459Z,20.67
2018-10-19T20:55:16.601Z,20.57
2018-10-19T20:57:43.519Z,20.66
2018-10-19T21:00:14.325Z,20.70
2018-10-19T21:02:40.590Z,20.71
2018-10-19T21:05:06.758Z,20.74
2018-10-19T21:07:33.775Z,20.73
2018-10-19T21:10:00.433Z,20.66
2018-10-19T21:12:26.546Z,20.62
2018-10-19T21:14:52.618Z,20.57
2018-10-19T21:17:18.709Z,20.55
2018-10-19T21:19:44.783Z,20.63
2018-10-19T21:22:10.845Z,20.63
2018-10-19T21:24:36.908Z,20.61
2018-10-19T21:27:02.958Z,20.64
2018-10-19T21:29:29.030Z,20.62
2018-10-19T21:31:55.059Z,20.58
2018-10-19T21:34:21.095Z,20.54
2018-10-19T21:36:47.097Z,20.49
2018-10-19T21:39:13.126Z,20.48
2018-10-19T21:41:39.806Z,20.50
2018-10-19T21:44:05.778Z,20.68
2018-10-19T21:46:33.025Z,20.69
2018-10-19T21:48:59.026Z,20.62
2018-10-19T21:51:25.003Z,20.59
2018-10-19T21:53:50.976Z,20.60
2018-10-19T21:56:17.023Z,20.49
2018-10-19T21:58:43.001Z,20.55
2018-10-19T22:01:08.973Z,20.56
2018-10-19T22:03:34.957Z,20.68
2018-10-19T22:06:00.990Z,20.63
2018-10-19T22:08:27.067Z,20.63
2018-10-19T22:10:53.030Z,20.59
2018-10-19T22:13:19.100Z,20.62
2018-10-19T22:15:45.399Z,20.65
2018-10-19T22:18:12.243Z,20.56
2018-10-19T22:20:38.291Z,20.49
2018-10-19T22:23:07.120Z,20.43
2018-10-19T22:25:33.694Z,20.45
2018-10-19T22:30:39.418Z,20.42
2018-10-19T22:33:05.542Z,20.49
2018-10-19T22:35:31.592Z,20.51
2018-10-19T22:37:57.630Z,20.54
2018-10-19T22:40:23.629Z,20.46
2018-10-19T22:42:49.630Z,20.38
2018-10-19T22:45:16.049Z,20.36
2018-10-19T22:47:42.050Z,20.35
2018-10-19T22:50:09.068Z,20.35
2018-10-19T22:52:35.104Z,20.44
2018-10-19T22:55:01.946Z,20.48
2018-10-19T22:57:28.353Z,20.43
2018-10-19T22:59:54.348Z,20.35
2018-10-19T23:02:20.719Z,20.37
2018-10-19T23:04:46.730Z,20.25
2018-10-19T23:07:12.955Z,20.25
2018-10-19T23:09:39.100Z,20.39
2018-10-19T23:12:06.177Z,20.30
2018-10-19T23:14:32.232Z,20.34
2018-10-19T23:16:58.435Z,20.32
2018-10-19T23:19:24.459Z,20.25
2018-10-19T23:21:50.477Z,20.27
2018-10-19T23:24:17.226Z,20.42
2018-10-19T23:26:43.398Z,20.26
2018-10-19T23:29:09.540Z,20.29
2018-10-19T23:31:35.733Z,20.37
2018-10-19T23:34:02.029Z,20.40
2018-10-19T23:36:28.051Z,20.30
2018-10-19T23:38:54.055Z,20.34
2018-10-19T23:41:20.038Z,20.24
2018-10-19T23:46:17.352Z,20.11
2018-10-19T23:48:43.422Z,20.17
2018-10-19T23:51:09.449Z,20.17
2018-10-19T23:53:35.526Z,20.08
2018-10-19T23:56:01.497Z,19.98
2018-10-19T23:58:28.451Z,19.97
